الصفحة الرئيسية
METAR-TAF:

METAR-TAF

مطار :

Four Corners Regional Airport

فارمينغتون, نيومكسيكو, الولايات المتحدة

دائرة عرض: 36-44-37N, خط طول: 108-13-45W, ارتفاع: 1677 متر

مراقبة الطقس الحالي

تاريخ ووقت الإصدار 1ساعة و 5 دقيقة قبل الساعة 04:53UTC
ريح 5 عقدة من الغرب
درجة الحرارة -3°درجة مئوية
الرطوبة 46%
ضغط 1028 hPa
الرؤية: 16.1 كم
سماء صافية

METAR: KFMN 140453Z 26005KT 10SM CLR M03/M13 A3037 RMK AO2 SLP313 T10281128

زمن: 22:58 (05:58 UTC)

توقعات

تاريخ ووقت الإصدار 38 دقيقة قبل الساعة 05:20UTC
التوقعات صالحة من14 الساعة 06 UTC إلى 15 الساعة 06 UTC
ريح 6 عقدة من الشرق
الرؤية: 10 كم
سماء صافية
من 14 الساعة 1700 UTC
ريح 4 عقدةمن اتجاهات متغيرة
الرؤية: 10 كم
سماء صافية

TAF: KFMN 140520Z 1406/1506 08006KT P6SM SKC FM141700 VRB04KT P6SM SKC

أرصاد الطقس والتوقعات من أكثر من 4000 مطار (تقارير الطقس للمطار METAR والتنبؤ بالطقس بالمطارTAF).

المحطات المتاحة هي النقط الصفراء والحمراء على الخريطة.

حرك المؤشر فوق النقطة لمعرفة اسم المحطة.

ثم انقر لمعرفة أرصاد وتوقعات الطقس.

لتغيير الخارطة: اضغط على الأزرار الخضراء مع رمز الصليب الأسود للتكبير. على الزر الأخضر مع شرطة للتصغير، أو على الأسهم الخضراء للخرائط المجاورة.


METAR-TAF: